createdAt,value
2022-11-14T00:00:33.933Z,12.07
2022-11-14T00:03:21.993Z,13.35
2022-11-14T00:06:09.846Z,12.57
2022-11-14T00:08:57.744Z,10.38
2022-11-14T00:11:45.498Z,10.13
2022-11-14T00:14:33.483Z,11.65
2022-11-14T00:17:21.611Z,10.02
2022-11-14T00:20:12.394Z,10.70
2022-11-14T00:23:00.404Z,11.55
2022-11-14T00:25:48.931Z,12.48
2022-11-14T00:28:36.866Z,9.68
2022-11-14T00:31:24.721Z,11.25
2022-11-14T00:34:12.602Z,10.32
2022-11-14T00:37:00.592Z,11.52
2022-11-14T00:39:48.457Z,12.55
2022-11-14T00:42:36.258Z,11.95
2022-11-14T00:45:24.701Z,13.25
2022-11-14T00:48:12.533Z,12.05
2022-11-14T00:51:00.325Z,12.25
2022-11-14T00:53:48.133Z,12.52
2022-11-14T00:56:35.889Z,12.52
2022-11-14T00:59:23.772Z,13.73
2022-11-14T01:02:11.712Z,14.60
2022-11-14T01:05:00.217Z,14.65
2022-11-14T01:07:48.266Z,12.73
2022-11-14T01:10:43.410Z,11.88
2022-11-14T01:13:32.696Z,13.55
2022-11-14T01:16:21.571Z,14.40
2022-11-14T01:19:09.606Z,16.35
2022-11-14T01:21:59.624Z,13.57
2022-11-14T01:24:50.955Z,15.20
2022-11-14T01:27:38.830Z,14.73
2022-11-14T01:30:26.633Z,13.00
2022-11-14T01:33:14.449Z,15.10
2022-11-14T01:36:02.319Z,13.57
2022-11-14T01:38:54.354Z,14.68
2022-11-14T01:41:42.285Z,13.43
2022-11-14T01:44:53.222Z,14.13
2022-11-14T01:47:42.233Z,14.07
2022-11-14T01:50:30.184Z,13.10
2022-11-14T01:53:18.144Z,16.35
2022-11-14T01:56:10.184Z,14.90
2022-11-14T01:59:15.907Z,15.65
2022-11-14T02:02:11.007Z,15.23
2022-11-14T02:05:16.549Z,14.82
2022-11-14T02:08:04.673Z,17.08
2022-11-14T02:10:52.695Z,15.00
2022-11-14T02:13:40.668Z,15.80
2022-11-14T02:16:28.760Z,15.65
2022-11-14T02:19:17.781Z,14.93
2022-11-14T02:22:05.594Z,16.27
2022-11-14T02:24:53.536Z,15.20
2022-11-14T02:27:42.067Z,13.80
2022-11-14T02:30:29.955Z,14.95
2022-11-14T02:33:17.811Z,14.77
2022-11-14T02:36:06.135Z,14.27
2022-11-14T02:38:53.952Z,12.07
2022-11-14T02:41:41.875Z,14.30
2022-11-14T02:44:29.784Z,12.75
2022-11-14T02:47:17.687Z,17.50
2022-11-14T02:50:06.113Z,13.95
2022-11-14T02:52:54.140Z,19.88
2022-11-14T02:55:42.004Z,15.25
2022-11-14T02:58:30.167Z,13.07
2022-11-14T03:01:21.320Z,14.48
2022-11-14T03:04:09.596Z,15.30
2022-11-14T03:07:00.469Z,16.58
2022-11-14T03:09:48.325Z,15.45
2022-11-14T03:12:36.287Z,15.68
2022-11-14T03:15:24.948Z,18.65
2022-11-14T03:18:13.192Z,13.88
2022-11-14T03:21:18.171Z,16.67
2022-11-14T03:24:06.572Z,15.60
2022-11-14T03:26:54.500Z,16.90
2022-11-14T03:29:42.367Z,17.58
2022-11-14T03:32:30.371Z,19.95
2022-11-14T03:35:18.416Z,16.48
2022-11-14T03:38:06.316Z,17.92
2022-11-14T03:40:54.365Z,18.85
2022-11-14T03:43:42.397Z,17.85
2022-11-14T03:46:30.253Z,18.15
2022-11-14T03:49:18.311Z,19.40
2022-11-14T03:52:06.105Z,17.83
2022-11-14T03:54:53.929Z,17.30
2022-11-14T03:57:41.744Z,16.38
2022-11-14T04:00:30.224Z,19.05
2022-11-14T04:03:18.118Z,19.67
2022-11-14T04:06:06.165Z,19.25
2022-11-14T04:08:54.136Z,20.02
2022-11-14T04:11:41.966Z,21.75
2022-11-14T04:14:29.776Z,21.00
2022-11-14T04:17:17.857Z,21.85
2022-11-14T04:20:06.339Z,19.40
2022-11-14T04:22:54.191Z,24.38
2022-11-14T04:25:44.900Z,21.52
2022-11-14T04:28:32.873Z,22.23
2022-11-14T04:31:20.835Z,22.17
2022-11-14T04:34:08.826Z,21.25
2022-11-14T04:36:56.733Z,21.98
2022-11-14T04:39:44.485Z,22.80
2022-11-14T04:42:32.281Z,21.40
2022-11-14T04:45:20.339Z,27.73
2022-11-14T04:48:08.433Z,27.45
2022-11-14T04:50:56.307Z,22.05
2022-11-14T04:53:44.189Z,23.17
2022-11-14T04:56:32.036Z,28.35
2022-11-14T04:59:21.204Z,27.92
2022-11-14T05:02:09.358Z,19.55
2022-11-14T05:04:57.201Z,24.77
2022-11-14T05:07:45.089Z,24.48
2022-11-14T05:10:33.239Z,24.65
2022-11-14T05:13:21.103Z,24.80
2022-11-14T05:16:09.150Z,24.20
2022-11-14T05:18:56.998Z,26.45
2022-11-14T05:21:44.801Z,26.35
2022-11-14T05:24:32.642Z,20.60
2022-11-14T05:27:20.477Z,22.15
2022-11-14T05:30:12.084Z,29.05
2022-11-14T05:33:00.865Z,23.83
2022-11-14T05:35:48.748Z,25.83
2022-11-14T05:38:36.875Z,22.95
2022-11-14T05:41:24.747Z,27.33
2022-11-14T05:44:12.654Z,27.05
2022-11-14T05:47:03.490Z,24.67
2022-11-14T05:49:51.379Z,22.02
2022-11-14T05:52:39.359Z,23.08
2022-11-14T05:55:27.623Z,24.00
2022-11-14T05:58:15.695Z,29.98
2022-11-14T06:01:17.124Z,26.60
2022-11-14T06:04:08.928Z,28.70
2022-11-14T06:06:56.942Z,24.33
2022-11-14T06:09:44.957Z,25.98
2022-11-14T06:12:32.985Z,26.20
2022-11-14T06:15:20.867Z,26.23
2022-11-14T06:18:08.855Z,28.42
2022-11-14T06:21:14.592Z,26.70
2022-11-14T06:24:04.637Z,27.88
2022-11-14T06:26:52.465Z,28.98
2022-11-14T06:29:40.399Z,29.65
2022-11-14T06:32:28.298Z,29.05
2022-11-14T06:35:17.520Z,34.78
2022-11-14T06:38:08.547Z,42.03
2022-11-14T06:41:25.798Z,37.75
2022-11-14T06:44:15.062Z,37.95
2022-11-14T06:47:02.924Z,33.10
2022-11-14T06:49:50.695Z,41.63
2022-11-14T06:52:38.667Z,40.42
2022-11-14T06:55:26.471Z,42.17
2022-11-14T06:58:14.479Z,43.55
2022-11-14T07:01:10.728Z,48.65
2022-11-14T07:07:14.721Z,50.70
2022-11-14T07:10:03.135Z,51.03
2022-11-14T07:12:53.295Z,55.50
2022-11-14T07:15:50.011Z,53.10
2022-11-14T07:18:38.413Z,62.40
2022-11-14T07:21:31.489Z,60.53
2022-11-14T07:24:19.521Z,64.45
2022-11-14T07:27:11.166Z,59.70
2022-11-14T07:29:59.188Z,59.67
2022-11-14T07:32:48.390Z,62.75
2022-11-14T07:35:36.369Z,65.90
2022-11-14T07:38:24.520Z,64.07
2022-11-14T07:41:17.117Z,58.38
2022-11-14T07:44:09.653Z,55.60
2022-11-14T07:46:57.636Z,63.17
2022-11-14T07:49:45.477Z,56.90
2022-11-14T07:52:33.684Z,58.60
2022-11-14T07:55:22.465Z,57.80
2022-11-14T07:58:10.374Z,62.92
2022-11-14T08:01:02.687Z,63.80
2022-11-14T08:03:50.704Z,57.47
2022-11-14T08:06:38.713Z,64.43
2022-11-14T08:09:26.633Z,62.30
2022-11-14T08:12:14.539Z,63.53
2022-11-14T08:15:02.494Z,57.50
2022-11-14T08:17:50.471Z,61.80
2022-11-14T08:20:38.549Z,57.65
2022-11-14T08:23:26.552Z,57.13
2022-11-14T08:26:14.444Z,58.50
2022-11-14T08:29:02.693Z,58.70
2022-11-14T08:31:52.622Z,59.10
2022-11-14T08:34:43.752Z,56.83
2022-11-14T08:37:32.567Z,59.75
2022-11-14T08:40:26.561Z,62.15
2022-11-14T08:43:14.850Z,57.15
2022-11-14T08:46:05.948Z,57.92
2022-11-14T08:48:54.078Z,57.50
2022-11-14T08:51:45.368Z,58.42
2022-11-14T08:54:33.496Z,56.08
2022-11-14T08:57:21.413Z,55.78
2022-11-14T09:00:10.332Z,54.72
2022-11-14T09:02:58.247Z,57.28
2022-11-14T09:05:52.918Z,60.85
2022-11-14T09:08:40.838Z,51.65
2022-11-14T09:11:28.714Z,54.97
2022-11-14T09:14:22.393Z,53.22
2022-11-14T09:17:10.364Z,51.97
2022-11-14T09:19:58.187Z,49.40
2022-11-14T09:22:48.979Z,55.80
2022-11-14T09:25:37.444Z,54.47
2022-11-14T09:28:25.527Z,51.17
2022-11-14T09:31:13.986Z,52.10
2022-11-14T09:34:01.895Z,45.65
2022-11-14T09:36:52.963Z,44.97
2022-11-14T09:39:41.249Z,46.30
2022-11-14T09:43:17.691Z,45.25
2022-11-14T09:46:24.125Z,39.08
2022-11-14T09:49:35.577Z,42.67
2022-11-14T09:52:45.186Z,33.67
2022-11-14T09:55:37.175Z,34.78
2022-11-14T09:58:27.502Z,35.75
2022-11-14T10:02:03.087Z,36.53
2022-11-14T10:05:22.658Z,35.63
2022-11-14T10:08:37.734Z,38.65
2022-11-14T10:11:36.870Z,34.20
2022-11-14T10:15:08.991Z,33.63
2022-11-14T10:18:37.051Z,31.25
2022-11-14T10:21:44.710Z,28.85
2022-11-14T10:24:54.874Z,29.05
2022-11-14T10:28:34.178Z,23.73
2022-11-14T10:31:53.164Z,24.70
2022-11-14T10:35:01.100Z,23.27
2022-11-14T10:37:58.439Z,21.30
2022-11-14T10:40:50.779Z,19.45
2022-11-14T10:43:44.760Z,21.85
2022-11-14T10:46:56.233Z,20.15
2022-11-14T10:49:47.955Z,24.05
2022-11-14T10:52:41.862Z,22.23
2022-11-14T10:55:50.049Z,25.52
2022-11-14T10:58:48.862Z,21.10
2022-11-14T11:01:47.277Z,24.00
2022-11-14T11:04:42.362Z,24.23
2022-11-14T11:08:41.362Z,23.10
2022-11-14T11:11:32.672Z,21.98
2022-11-14T11:14:23.702Z,23.10
2022-11-14T11:17:11.489Z,23.17
2022-11-14T11:20:36.491Z,23.13
2022-11-14T11:26:37.378Z,18.40
2022-11-14T11:29:30.224Z,20.02
2022-11-14T11:32:33.649Z,20.23
2022-11-14T11:35:21.959Z,18.10
2022-11-14T11:38:15.977Z,20.30
2022-11-14T11:44:47.001Z,22.02
2022-11-14T11:47:36.982Z,20.02
2022-11-14T11:50:26.143Z,19.63
2022-11-14T11:53:26.685Z,18.55
2022-11-14T11:56:24.983Z,15.85
2022-11-14T11:59:42.162Z,20.35
2022-11-14T12:02:30.778Z,17.98
2022-11-14T12:05:24.977Z,22.27
2022-11-14T12:11:22.227Z,18.40
2022-11-14T12:14:57.160Z,20.33
2022-11-14T12:18:15.783Z,22.73
2022-11-14T12:21:21.299Z,17.95
2022-11-14T12:24:43.162Z,17.60
2022-11-14T12:28:05.488Z,19.33
2022-11-14T12:30:59.545Z,21.77
2022-11-14T12:33:57.881Z,18.73
2022-11-14T12:36:46.482Z,18.60
2022-11-14T12:39:35.015Z,20.33
2022-11-14T12:42:23.003Z,20.20
2022-11-14T12:45:41.603Z,19.00
2022-11-14T12:48:32.826Z,20.02
2022-11-14T12:51:29.718Z,18.00
2022-11-14T12:54:47.906Z,18.05
2022-11-14T12:58:22.852Z,16.63
2022-11-14T13:01:47.938Z,13.23
2022-11-14T13:05:11.320Z,12.90
2022-11-14T13:08:49.354Z,13.48
2022-11-14T13:12:01.272Z,12.98
2022-11-14T13:15:14.709Z,13.38
2022-11-14T13:18:40.643Z,18.15
2022-11-14T13:21:47.044Z,12.70
2022-11-14T13:24:59.856Z,12.63
2022-11-14T13:31:06.983Z,11.68
2022-11-14T13:34:01.548Z,13.70
2022-11-14T13:37:29.542Z,12.75
2022-11-14T13:41:07.363Z,16.70
2022-11-14T13:44:24.590Z,13.88
2022-11-14T13:48:17.282Z,13.15
2022-11-14T13:51:36.708Z,18.45
2022-11-14T13:54:20.711Z,11.88
2022-11-14T13:57:45.043Z,11.10
2022-11-14T14:01:06.425Z,10.35
2022-11-14T14:04:12.695Z,11.35
2022-11-14T14:07:33.855Z,11.25
2022-11-14T14:10:57.712Z,13.07
2022-11-14T14:14:14.116Z,11.95
2022-11-14T14:17:35.445Z,14.30
2022-11-14T14:20:53.346Z,12.10
2022-11-14T14:23:53.519Z,11.20
2022-11-14T14:26:57.805Z,13.07
2022-11-14T14:30:08.864Z,12.10
2022-11-14T14:33:14.961Z,14.30
2022-11-14T14:36:02.762Z,14.20
2022-11-14T14:39:16.393Z,11.90
2022-11-14T14:42:16.343Z,9.85
2022-11-14T14:45:10.430Z,10.90
2022-11-14T14:48:13.178Z,10.65
2022-11-14T14:51:03.253Z,9.65
2022-11-14T14:53:54.528Z,12.07
2022-11-14T14:57:00.100Z,11.10
2022-11-14T15:00:17.494Z,10.02
2022-11-14T15:03:05.403Z,9.70
2022-11-14T15:06:05.527Z,9.05
2022-11-14T15:08:53.493Z,9.68
2022-11-14T15:11:44.974Z,10.77
2022-11-14T15:14:35.886Z,9.45
2022-11-14T15:17:24.050Z,9.95
2022-11-14T15:20:27.287Z,10.63
2022-11-14T15:23:15.277Z,9.88
2022-11-14T15:26:10.147Z,9.57
2022-11-14T15:29:18.516Z,8.80
2022-11-14T15:32:06.550Z,10.60
2022-11-14T15:35:23.911Z,8.40
2022-11-14T15:38:42.632Z,7.85
2022-11-14T15:41:24.532Z,8.73
2022-11-14T15:44:35.937Z,9.13
2022-11-14T15:47:40.653Z,7.93
2022-11-14T15:50:35.425Z,8.45
2022-11-14T15:53:25.837Z,8.50
2022-11-14T15:56:14.332Z,9.10
2022-11-14T15:59:02.143Z,8.85
2022-11-14T16:01:54.273Z,7.53
2022-11-14T16:04:47.294Z,13.65
2022-11-14T16:07:47.676Z,10.07
2022-11-14T16:10:37.982Z,10.93
2022-11-14T16:13:33.119Z,11.48
2022-11-14T16:16:24.231Z,10.95
2022-11-14T16:19:16.764Z,11.52
2022-11-14T16:22:05.599Z,11.63
2022-11-14T16:24:53.809Z,8.55
2022-11-14T16:27:42.226Z,10.18
2022-11-14T16:30:30.221Z,9.75
2022-11-14T16:33:18.292Z,12.95
2022-11-14T16:36:12.251Z,9.70
2022-11-14T16:39:03.161Z,12.38
2022-11-14T16:41:51.374Z,13.38
2022-11-14T16:44:54.648Z,11.10
2022-11-14T16:48:04.612Z,12.20
2022-11-14T16:51:10.053Z,15.50
2022-11-14T16:54:06.165Z,12.40
2022-11-14T16:56:54.196Z,12.10
2022-11-14T16:59:42.136Z,20.70
2022-11-14T17:02:30.162Z,12.60
2022-11-14T17:05:20.491Z,14.98
2022-11-14T17:08:08.389Z,12.38
2022-11-14T17:10:56.254Z,14.55
2022-11-14T17:13:47.074Z,15.18
2022-11-14T17:16:35.020Z,15.10
2022-11-14T17:19:22.958Z,15.15
2022-11-14T17:22:17.403Z,16.50
2022-11-14T17:25:05.877Z,13.60
2022-11-14T17:27:53.735Z,14.18
2022-11-14T17:30:42.886Z,15.48
2022-11-14T17:33:31.272Z,12.98
2022-11-14T17:36:19.990Z,20.05
2022-11-14T17:39:07.983Z,15.23
2022-11-14T17:41:55.875Z,15.05
2022-11-14T17:44:43.710Z,13.20
2022-11-14T17:47:31.588Z,15.48
2022-11-14T17:50:19.427Z,18.48
2022-11-14T17:53:07.331Z,16.05
2022-11-14T17:55:59.585Z,16.25
2022-11-14T17:58:50.017Z,15.80
2022-11-14T18:01:38.045Z,15.48
2022-11-14T18:04:26.590Z,21.92
2022-11-14T18:07:22.673Z,13.88
2022-11-14T18:10:23.139Z,16.50
2022-11-14T18:13:11.546Z,16.30
2022-11-14T18:16:14.527Z,12.60
2022-11-14T18:19:16.947Z,14.27
2022-11-14T18:22:07.817Z,14.57
2022-11-14T18:24:56.291Z,14.13
2022-11-14T18:27:51.558Z,13.77
2022-11-14T18:30:45.686Z,15.80
2022-11-14T18:36:26.409Z,15.45
2022-11-14T18:39:47.422Z,18.35
2022-11-14T18:42:35.615Z,16.25
2022-11-14T18:45:26.160Z,19.98
2022-11-14T18:48:13.995Z,14.20
2022-11-14T18:51:07.935Z,16.70
2022-11-14T18:54:04.139Z,19.88
2022-11-14T18:56:59.376Z,19.75
2022-11-14T18:59:50.456Z,20.15
2022-11-14T19:02:38.666Z,17.25
2022-11-14T19:05:26.649Z,17.05
2022-11-14T19:08:14.573Z,19.05
2022-11-14T19:11:08.779Z,20.73
2022-11-14T19:16:54.468Z,22.75
2022-11-14T19:19:42.421Z,19.60
2022-11-14T19:22:30.297Z,28.55
2022-11-14T19:25:18.258Z,21.02
2022-11-14T19:28:06.295Z,22.88
2022-11-14T19:30:54.374Z,21.17
2022-11-14T19:33:50.251Z,20.48
2022-11-14T19:39:53.588Z,24.35
2022-11-14T19:42:44.774Z,23.17
2022-11-14T19:45:35.995Z,22.63
2022-11-14T19:48:26.645Z,22.02
2022-11-14T19:51:25.749Z,23.05
2022-11-14T19:54:16.076Z,26.20
2022-11-14T19:57:09.679Z,21.33
2022-11-14T20:00:06.232Z,25.95
2022-11-14T20:03:00.236Z,24.27
2022-11-14T20:05:49.605Z,22.38
2022-11-14T20:08:37.670Z,23.48
2022-11-14T20:11:28.933Z,23.63
2022-11-14T20:14:17.495Z,22.55
2022-11-14T20:17:14.781Z,24.80
2022-11-14T20:20:02.575Z,24.48
2022-11-14T20:22:50.473Z,22.58
2022-11-14T20:25:44.435Z,21.30
2022-11-14T20:28:34.096Z,24.77
2022-11-14T20:31:28.542Z,23.25
2022-11-14T20:34:16.314Z,23.70
2022-11-14T20:37:10.990Z,26.60
2022-11-14T20:40:02.978Z,21.98
2022-11-14T20:42:50.923Z,21.30
2022-11-14T20:45:41.084Z,23.85
2022-11-14T20:48:31.387Z,19.85
2022-11-14T20:51:24.786Z,25.25
2022-11-14T20:54:12.650Z,26.23
2022-11-14T20:57:03.009Z,26.90
2022-11-14T20:59:51.059Z,23.15
2022-11-14T21:02:39.115Z,25.15
2022-11-14T21:05:26.874Z,23.65
2022-11-14T21:08:16.860Z,21.05
2022-11-14T21:11:10.647Z,24.17
2022-11-14T21:14:01.698Z,25.65
2022-11-14T21:16:49.749Z,24.10
2022-11-14T21:19:37.799Z,20.52
2022-11-14T21:22:26.097Z,24.40
2022-11-14T21:25:16.683Z,22.95
2022-11-14T21:28:04.605Z,20.08
2022-11-14T21:30:58.697Z,24.88
2022-11-14T21:37:08.252Z,22.73
2022-11-14T21:41:19.542Z,22.38
2022-11-14T21:43:43.259Z,25.45
2022-11-14T21:46:51.527Z,21.48
2022-11-14T21:50:00.922Z,25.88
2022-11-14T21:53:20.075Z,22.67
2022-11-14T21:56:35.884Z,27.48
2022-11-14T21:59:36.532Z,26.10
2022-11-14T22:06:11.956Z,24.08
2022-11-14T22:09:25.117Z,22.02
2022-11-14T22:15:20.342Z,22.42
2022-11-14T22:19:20.844Z,22.92
2022-11-14T22:25:07.786Z,23.55
2022-11-14T22:27:58.331Z,22.38
2022-11-14T22:30:46.157Z,21.90
2022-11-14T22:33:42.767Z,21.38
2022-11-14T22:36:33.924Z,23.77
2022-11-14T22:39:21.956Z,26.83
2022-11-14T22:42:10.781Z,22.05
2022-11-14T22:44:58.749Z,21.60
2022-11-14T22:47:46.623Z,25.52
2022-11-14T22:50:34.536Z,21.83
2022-11-14T22:53:22.338Z,22.02
2022-11-14T22:56:14.723Z,23.50
2022-11-14T22:59:02.785Z,24.15
2022-11-14T23:01:50.606Z,21.85
2022-11-14T23:04:40.673Z,22.85
2022-11-14T23:07:28.640Z,21.88
2022-11-14T23:10:17.868Z,26.17
2022-11-14T23:13:05.964Z,23.40
2022-11-14T23:15:53.890Z,26.58
2022-11-14T23:18:42.118Z,19.83
2022-11-14T23:21:37.856Z,22.85
2022-11-14T23:24:25.833Z,25.05
2022-11-14T23:27:13.676Z,21.50
2022-11-14T23:30:01.722Z,27.55
2022-11-14T23:32:49.763Z,24.02
2022-11-14T23:35:37.727Z,23.83
2022-11-14T23:38:25.577Z,24.05
2022-11-14T23:41:19.605Z,25.05
2022-11-14T23:44:07.471Z,25.13
2022-11-14T23:46:55.264Z,27.35
2022-11-14T23:49:43.164Z,25.13
2022-11-14T23:52:31.057Z,23.05
2022-11-14T23:55:19.137Z,22.42
2022-11-14T23:58:06.942Z,24.00
